sensor_id;sensor_type;location;lat;lon;timestamp;pressure;altitude;pressure_sealevel;temperature;humidity
73429;BME280;61643;49.564;17.412;2023-03-01T00:01:37;99344.06;;;-2.33;81.33
73429;BME280;61643;49.564;17.412;2023-03-01T00:04:03;99341.56;;;-2.34;81.47
73429;BME280;61643;49.564;17.412;2023-03-01T00:06:29;99338.63;;;-2.59;82.06
73429;BME280;61643;49.564;17.412;2023-03-01T00:08:55;99340.66;;;-2.53;82.19
73429;BME280;61643;49.564;17.412;2023-03-01T00:11:24;99349.31;;;-2.60;82.08
73429;BME280;61643;49.564;17.412;2023-03-01T00:13:52;99339.59;;;-2.60;81.75
73429;BME280;61643;49.564;17.412;2023-03-01T00:16:24;99338.81;;;-2.70;82.27
73429;BME280;61643;49.564;17.412;2023-03-01T00:18:50;99335.75;;;-2.65;81.40
73429;BME280;61643;49.564;17.412;2023-03-01T00:21:17;99330.84;;;-2.51;80.56
73429;BME280;61643;49.564;17.412;2023-03-01T00:23:43;99331.81;;;-2.52;80.14
73429;BME280;61643;49.564;17.412;2023-03-01T00:26:12;99331.06;;;-2.44;79.50
73429;BME280;61643;49.564;17.412;2023-03-01T00:28:39;99326.03;;;-2.37;78.23
73429;BME280;61643;49.564;17.412;2023-03-01T00:31:09;99328.06;;;-2.31;78.16
73429;BME280;61643;49.564;17.412;2023-03-01T00:33:35;99329.97;;;-2.24;79.13
73429;BME280;61643;49.564;17.412;2023-03-01T00:36:02;99329.16;;;-2.24;78.69
73429;BME280;61643;49.564;17.412;2023-03-01T00:38:28;99327.19;;;-2.22;78.47
73429;BME280;61643;49.564;17.412;2023-03-01T00:40:55;99332.38;;;-2.30;78.96
73429;BME280;61643;49.564;17.412;2023-03-01T00:43:21;99327.31;;;-2.24;79.21
73429;BME280;61643;49.564;17.412;2023-03-01T00:45:47;99328.56;;;-2.18;79.23
73429;BME280;61643;49.564;17.412;2023-03-01T00:48:13;99326.28;;;-2.13;77.73
73429;BME280;61643;49.564;17.412;2023-03-01T00:50:39;99319.28;;;-2.05;77.17
73429;BME280;61643;49.564;17.412;2023-03-01T00:53:05;99311.03;;;-1.92;76.56
73429;BME280;61643;49.564;17.412;2023-03-01T00:55:31;99315.84;;;-1.87;76.51
73429;BME280;61643;49.564;17.412;2023-03-01T00:57:57;99316.84;;;-1.88;76.64
73429;BME280;61643;49.564;17.412;2023-03-01T01:00:22;99318.25;;;-1.94;76.85
73429;BME280;61643;49.564;17.412;2023-03-01T01:02:49;99309.50;;;-1.94;76.95
73429;BME280;61643;49.564;17.412;2023-03-01T01:05:15;99302.59;;;-1.95;77.46
73429;BME280;61643;49.564;17.412;2023-03-01T01:07:47;99303.69;;;-1.98;77.67
73429;BME280;61643;49.564;17.412;2023-03-01T01:10:13;99301.28;;;-2.09;78.40
73429;BME280;61643;49.564;17.412;2023-03-01T01:12:44;99300.16;;;-2.07;77.93
73429;BME280;61643;49.564;17.412;2023-03-01T01:15:10;99295.34;;;-2.11;77.96
73429;BME280;61643;49.564;17.412;2023-03-01T01:17:40;99298.81;;;-2.11;78.51
73429;BME280;61643;49.564;17.412;2023-03-01T01:20:06;99291.72;;;-2.10;78.51
73429;BME280;61643;49.564;17.412;2023-03-01T01:22:33;99281.75;;;-2.16;78.27
73429;BME280;61643;49.564;17.412;2023-03-01T01:24:59;99290.28;;;-2.22;78.94
73429;BME280;61643;49.564;17.412;2023-03-01T01:27:25;99285.53;;;-2.19;79.05
73429;BME280;61643;49.564;17.412;2023-03-01T01:29:53;99285.66;;;-2.20;78.90
73429;BME280;61643;49.564;17.412;2023-03-01T01:32:18;99275.66;;;-2.34;79.50
73429;BME280;61643;49.564;17.412;2023-03-01T01:34:44;99284.59;;;-2.45;80.31
73429;BME280;61643;49.564;17.412;2023-03-01T01:37:12;99282.69;;;-2.53;80.94
73429;BME280;61643;49.564;17.412;2023-03-01T01:39:38;99272.44;;;-2.56;80.73
73429;BME280;61643;49.564;17.412;2023-03-01T01:42:04;99282.13;;;-2.74;81.07
73429;BME280;61643;49.564;17.412;2023-03-01T01:44:30;99281.78;;;-2.61;81.40
73429;BME280;61643;49.564;17.412;2023-03-01T01:46:59;99286.13;;;-2.70;81.33
73429;BME280;61643;49.564;17.412;2023-03-01T01:52:10;99270.56;;;-2.63;80.87
73429;BME280;61643;49.564;17.412;2023-03-01T01:54:54;99269.72;;;-2.64;81.74
73429;BME280;61643;49.564;17.412;2023-03-01T01:57:26;99265.28;;;-2.63;82.03
73429;BME280;61643;49.564;17.412;2023-03-01T01:59:56;99256.84;;;-2.67;81.67
73429;BME280;61643;49.564;17.412;2023-03-01T02:02:24;99265.88;;;-2.69;82.32
73429;BME280;61643;49.564;17.412;2023-03-01T02:04:58;99250.19;;;-2.71;81.96
73429;BME280;61643;49.564;17.412;2023-03-01T02:07:30;99248.84;;;-2.75;81.23
73429;BME280;61643;49.564;17.412;2023-03-01T02:09:56;99250.50;;;-2.74;81.66
73429;BME280;61643;49.564;17.412;2023-03-01T02:12:24;99245.94;;;-2.72;81.08
73429;BME280;61643;49.564;17.412;2023-03-01T02:14:51;99247.38;;;-2.42;78.88
73429;BME280;61643;49.564;17.412;2023-03-01T02:17:18;99239.97;;;-2.29;77.53
73429;BME280;61643;49.564;17.412;2023-03-01T02:20:15;99251.13;;;-2.17;76.63
73429;BME280;61643;49.564;17.412;2023-03-01T02:22:46;99255.78;;;-2.11;77.05
73429;BME280;61643;49.564;17.412;2023-03-01T02:28:08;99260.44;;;-2.05;77.28
73429;BME280;61643;49.564;17.412;2023-03-01T02:30:36;99257.97;;;-2.07;77.33
73429;BME280;61643;49.564;17.412;2023-03-01T02:33:04;99249.66;;;-2.12;78.24
73429;BME280;61643;49.564;17.412;2023-03-01T02:35:34;99248.47;;;-2.17;77.63
73429;BME280;61643;49.564;17.412;2023-03-01T02:38:02;99254.72;;;-2.18;78.03
73429;BME280;61643;49.564;17.412;2023-03-01T02:40:30;99252.41;;;-2.21;78.49
73429;BME280;61643;49.564;17.412;2023-03-01T02:42:58;99263.91;;;-2.22;78.72
73429;BME280;61643;49.564;17.412;2023-03-01T02:45:26;99269.84;;;-2.20;78.85
73429;BME280;61643;49.564;17.412;2023-03-01T02:47:56;99262.09;;;-2.22;78.38
73429;BME280;61643;49.564;17.412;2023-03-01T02:53:16;99259.38;;;-2.30;79.82
73429;BME280;61643;49.564;17.412;2023-03-01T02:55:47;99256.44;;;-2.44;82.34
73429;BME280;61643;49.564;17.412;2023-03-01T02:58:14;99260.44;;;-2.40;80.87
73429;BME280;61643;49.564;17.412;2023-03-01T03:00:42;99260.28;;;-2.39;81.83
73429;BME280;61643;49.564;17.412;2023-03-01T03:03:16;99258.00;;;-2.52;81.38
73429;BME280;61643;49.564;17.412;2023-03-01T03:05:43;99252.44;;;-2.49;81.49
73429;BME280;61643;49.564;17.412;2023-03-01T03:08:09;99251.03;;;-2.43;81.28
73429;BME280;61643;49.564;17.412;2023-03-01T03:10:40;99254.63;;;-2.44;81.62
73429;BME280;61643;49.564;17.412;2023-03-01T03:13:09;99254.50;;;-2.42;80.90
73429;BME280;61643;49.564;17.412;2023-03-01T03:15:35;99255.16;;;-2.40;80.70
73429;BME280;61643;49.564;17.412;2023-03-01T03:18:03;99248.91;;;-2.39;81.53
73429;BME280;61643;49.564;17.412;2023-03-01T03:20:30;99253.78;;;-2.44;82.39
73429;BME280;61643;49.564;17.412;2023-03-01T03:22:57;99256.72;;;-2.47;82.33
73429;BME280;61643;49.564;17.412;2023-03-01T03:25:24;99259.38;;;-2.47;82.50
73429;BME280;61643;49.564;17.412;2023-03-01T03:27:52;99260.63;;;-2.52;82.09
73429;BME280;61643;49.564;17.412;2023-03-01T03:30:25;99256.81;;;-2.57;83.13
73429;BME280;61643;49.564;17.412;2023-03-01T03:32:51;99253.03;;;-2.55;82.98
73429;BME280;61643;49.564;17.412;2023-03-01T03:37:50;99252.81;;;-2.61;83.40
73429;BME280;61643;49.564;17.412;2023-03-01T03:40:50;99250.53;;;-2.56;82.34
73429;BME280;61643;49.564;17.412;2023-03-01T03:43:18;99245.44;;;-2.58;83.27
73429;BME280;61643;49.564;17.412;2023-03-01T03:45:46;99237.22;;;-2.55;82.12
73429;BME280;61643;49.564;17.412;2023-03-01T03:48:12;99236.50;;;-2.74;82.51
73429;BME280;61643;49.564;17.412;2023-03-01T03:50:40;99236.59;;;-2.66;82.20
73429;BME280;61643;49.564;17.412;2023-03-01T03:53:08;99234.34;;;-2.61;82.56
73429;BME280;61643;49.564;17.412;2023-03-01T03:55:35;99237.53;;;-2.58;83.81
73429;BME280;61643;49.564;17.412;2023-03-01T03:58:07;99243.75;;;-2.59;83.87
73429;BME280;61643;49.564;17.412;2023-03-01T04:00:38;99234.19;;;-2.60;83.29
73429;BME280;61643;49.564;17.412;2023-03-01T04:03:05;99240.59;;;-2.62;83.42
73429;BME280;61643;49.564;17.412;2023-03-01T04:05:31;99237.81;;;-2.61;84.63
73429;BME280;61643;49.564;17.412;2023-03-01T04:07:57;99226.97;;;-2.58;84.30
73429;BME280;61643;49.564;17.412;2023-03-01T04:10:29;99231.19;;;-2.65;83.67
73429;BME280;61643;49.564;17.412;2023-03-01T04:12:56;99221.84;;;-3.04;84.75
73429;BME280;61643;49.564;17.412;2023-03-01T04:15:23;99224.13;;;-2.91;84.33
73429;BME280;61643;49.564;17.412;2023-03-01T04:17:51;99223.28;;;-2.92;84.36
73429;BME280;61643;49.564;17.412;2023-03-01T04:20:20;99216.66;;;-2.96;85.60
73429;BME280;61643;49.564;17.412;2023-03-01T04:25:40;99210.63;;;-3.06;84.92
73429;BME280;61643;49.564;17.412;2023-03-01T04:28:08;99216.81;;;-2.97;84.63
73429;BME280;61643;49.564;17.412;2023-03-01T04:30:36;99238.50;;;-3.13;85.31
73429;BME280;61643;49.564;17.412;2023-03-01T04:33:04;99236.13;;;-3.07;85.64
73429;BME280;61643;49.564;17.412;2023-03-01T04:35:31;99228.94;;;-3.14;85.88
73429;BME280;61643;49.564;17.412;2023-03-01T04:37:58;99225.63;;;-3.16;85.71
73429;BME280;61643;49.564;17.412;2023-03-01T04:40:24;99234.06;;;-3.13;84.87
73429;BME280;61643;49.564;17.412;2023-03-01T04:42:50;99242.25;;;-3.16;85.35
73429;BME280;61643;49.564;17.412;2023-03-01T04:45:16;99243.53;;;-3.20;85.36
73429;BME280;61643;49.564;17.412;2023-03-01T04:47:44;99250.09;;;-3.43;85.95
73429;BME280;61643;49.564;17.412;2023-03-01T04:50:14;99249.81;;;-3.30;86.12
73429;BME280;61643;49.564;17.412;2023-03-01T04:52:40;99237.44;;;-3.20;85.03
73429;BME280;61643;49.564;17.412;2023-03-01T04:55:07;99228.56;;;-3.19;85.29
73429;BME280;61643;49.564;17.412;2023-03-01T04:57:33;99235.09;;;-3.23;85.18
73429;BME280;61643;49.564;17.412;2023-03-01T04:59:59;99235.50;;;-3.28;85.73
73429;BME280;61643;49.564;17.412;2023-03-01T05:02:25;99242.38;;;-3.54;85.89
73429;BME280;61643;49.564;17.412;2023-03-01T05:04:51;99242.50;;;-3.46;86.40
73429;BME280;61643;49.564;17.412;2023-03-01T05:07:17;99236.28;;;-3.45;85.87
73429;BME280;61643;49.564;17.412;2023-03-01T05:09:46;99248.00;;;-3.39;85.74
73429;BME280;61643;49.564;17.412;2023-03-01T05:12:13;99240.41;;;-3.42;85.95
73429;BME280;61643;49.564;17.412;2023-03-01T05:14:40;99246.84;;;-3.64;86.90
73429;BME280;61643;49.564;17.412;2023-03-01T05:17:07;99238.34;;;-3.49;85.83
73429;BME280;61643;49.564;17.412;2023-03-01T05:19:33;99238.66;;;-3.52;87.17
73429;BME280;61643;49.564;17.412;2023-03-01T05:21:59;99230.34;;;-3.57;86.05
73429;BME280;61643;49.564;17.412;2023-03-01T05:24:35;99228.84;;;-3.69;86.27
73429;BME280;61643;49.564;17.412;2023-03-01T05:27:02;99224.00;;;-3.64;86.46
73429;BME280;61643;49.564;17.412;2023-03-01T05:29:30;99227.50;;;-3.92;87.23
73429;BME280;61643;49.564;17.412;2023-03-01T05:31:57;99224.13;;;-3.65;86.80
73429;BME280;61643;49.564;17.412;2023-03-01T05:34:29;99223.69;;;-3.51;86.17
73429;BME280;61643;49.564;17.412;2023-03-01T05:36:56;99218.56;;;-3.53;85.86
73429;BME280;61643;49.564;17.412;2023-03-01T05:39:24;99222.03;;;-3.62;86.70
73429;BME280;61643;49.564;17.412;2023-03-01T05:41:56;99218.16;;;-3.58;86.35
73429;BME280;61643;49.564;17.412;2023-03-01T05:44:23;99228.59;;;-3.85;86.76
73429;BME280;61643;49.564;17.412;2023-03-01T05:46:49;99228.28;;;-3.63;86.68
73429;BME280;61643;49.564;17.412;2023-03-01T05:49:16;99229.84;;;-3.70;86.98
73429;BME280;61643;49.564;17.412;2023-03-01T05:51:43;99229.38;;;-3.56;86.21
73429;BME280;61643;49.564;17.412;2023-03-01T05:54:09;99227.59;;;-3.65;86.47
73429;BME280;61643;49.564;17.412;2023-03-01T05:56:36;99240.63;;;-3.73;86.85
73429;BME280;61643;49.564;17.412;2023-03-01T05:59:03;99228.97;;;-3.61;86.60
73429;BME280;61643;49.564;17.412;2023-03-01T06:01:31;99235.16;;;-3.42;85.52
73429;BME280;61643;49.564;17.412;2023-03-01T06:03:57;99234.31;;;-3.43;85.50
73429;BME280;61643;49.564;17.412;2023-03-01T06:06:24;99250.50;;;-3.38;86.09
73429;BME280;61643;49.564;17.412;2023-03-01T06:08:51;99245.84;;;-3.54;86.99
73429;BME280;61643;49.564;17.412;2023-03-01T06:11:17;99239.03;;;-3.47;87.36
73429;BME280;61643;49.564;17.412;2023-03-01T06:13:43;99235.84;;;-3.40;86.83
73429;BME280;61643;49.564;17.412;2023-03-01T06:16:10;99240.88;;;-3.57;88.00
73429;BME280;61643;49.564;17.412;2023-03-01T06:18:37;99242.66;;;-3.47;87.49
73429;BME280;61643;49.564;17.412;2023-03-01T06:21:04;99236.09;;;-3.43;87.16
73429;BME280;61643;49.564;17.412;2023-03-01T06:23:31;99240.09;;;-3.30;87.00
73429;BME280;61643;49.564;17.412;2023-03-01T06:25:57;99240.41;;;-3.42;88.91
73429;BME280;61643;49.564;17.412;2023-03-01T06:28:23;99243.13;;;-3.25;88.75
73429;BME280;61643;49.564;17.412;2023-03-01T06:30:50;99239.44;;;-3.05;87.06
73429;BME280;61643;49.564;17.412;2023-03-01T06:33:16;99244.38;;;-2.92;86.28
73429;BME280;61643;49.564;17.412;2023-03-01T06:35:42;99245.63;;;-2.96;86.75
73429;BME280;61643;49.564;17.412;2023-03-01T06:38:07;99238.78;;;-2.89;87.44
73429;BME280;61643;49.564;17.412;2023-03-01T06:40:33;99244.41;;;-2.74;86.54
73429;BME280;61643;49.564;17.412;2023-03-01T06:43:00;99237.44;;;-2.66;86.41
73429;BME280;61643;49.564;17.412;2023-03-01T06:45:27;99244.16;;;-2.54;86.39
73429;BME280;61643;49.564;17.412;2023-03-01T06:48:01;99243.25;;;-2.44;86.86
73429;BME280;61643;49.564;17.412;2023-03-01T06:50:28;99238.72;;;-2.34;86.68
73429;BME280;61643;49.564;17.412;2023-03-01T06:52:57;99238.50;;;-2.23;85.87
73429;BME280;61643;49.564;17.412;2023-03-01T06:55:23;99242.06;;;-2.15;85.08
73429;BME280;61643;49.564;17.412;2023-03-01T06:57:54;99236.56;;;-2.04;84.50
73429;BME280;61643;49.564;17.412;2023-03-01T07:00:21;99232.34;;;-1.96;84.38
73429;BME280;61643;49.564;17.412;2023-03-01T07:02:47;99240.00;;;-1.85;83.92
73429;BME280;61643;49.564;17.412;2023-03-01T07:05:13;99249.41;;;-1.83;83.09
73429;BME280;61643;49.564;17.412;2023-03-01T07:07:39;99246.09;;;-1.67;83.34
73429;BME280;61643;49.564;17.412;2023-03-01T07:10:05;99234.53;;;-1.66;83.45
73429;BME280;61643;49.564;17.412;2023-03-01T07:12:32;99235.88;;;-1.62;83.12
73429;BME280;61643;49.564;17.412;2023-03-01T07:14:58;99230.16;;;-1.58;81.41
73429;BME280;61643;49.564;17.412;2023-03-01T07:17:24;99227.69;;;-1.51;79.57
73429;BME280;61643;49.564;17.412;2023-03-01T07:19:50;99242.47;;;-1.40;79.76
73429;BME280;61643;49.564;17.412;2023-03-01T07:22:16;99242.13;;;-1.45;78.96
73429;BME280;61643;49.564;17.412;2023-03-01T07:24:42;99243.28;;;-1.40;79.04
73429;BME280;61643;49.564;17.412;2023-03-01T07:27:09;99248.88;;;-1.43;78.50
73429;BME280;61643;49.564;17.412;2023-03-01T07:29:35;99240.25;;;-1.27;78.98
73429;BME280;61643;49.564;17.412;2023-03-01T07:32:03;99244.06;;;-1.22;79.97
73429;BME280;61643;49.564;17.412;2023-03-01T07:34:29;99243.13;;;-1.13;79.78
73429;BME280;61643;49.564;17.412;2023-03-01T07:36:55;99232.56;;;-1.13;80.00
73429;BME280;61643;49.564;17.412;2023-03-01T07:39:21;99229.66;;;-1.02;80.29
73429;BME280;61643;49.564;17.412;2023-03-01T07:41:49;99219.59;;;-0.98;79.99
73429;BME280;61643;49.564;17.412;2023-03-01T07:44:15;99222.09;;;-0.88;80.74
73429;BME280;61643;49.564;17.412;2023-03-01T07:46:43;99229.06;;;-0.79;80.94
73429;BME280;61643;49.564;17.412;2023-03-01T07:49:09;99229.88;;;-0.79;80.47
73429;BME280;61643;49.564;17.412;2023-03-01T07:51:36;99230.91;;;-0.72;80.98
73429;BME280;61643;49.564;17.412;2023-03-01T07:54:02;99226.94;;;-0.68;80.83
73429;BME280;61643;49.564;17.412;2023-03-01T07:56:28;99218.22;;;-0.60;80.26
73429;BME280;61643;49.564;17.412;2023-03-01T07:58:54;99219.41;;;-0.55;80.61
73429;BME280;61643;49.564;17.412;2023-03-01T08:01:21;99221.91;;;-0.45;80.73
73429;BME280;61643;49.564;17.412;2023-03-01T08:03:47;99223.53;;;-0.36;80.19
73429;BME280;61643;49.564;17.412;2023-03-01T08:06:15;99223.56;;;-0.28;79.83
73429;BME280;61643;49.564;17.412;2023-03-01T08:08:41;99220.13;;;-0.20;77.52
73429;BME280;61643;49.564;17.412;2023-03-01T08:11:10;99221.78;;;-0.19;77.94
73429;BME280;61643;49.564;17.412;2023-03-01T08:13:37;99220.44;;;-0.07;77.63
73429;BME280;61643;49.564;17.412;2023-03-01T08:16:09;99217.31;;;-0.03;77.67
73429;BME280;61643;49.564;17.412;2023-03-01T08:18:35;99214.19;;;0.02;77.52
73429;BME280;61643;49.564;17.412;2023-03-01T08:21:07;99216.34;;;0.07;76.79
73429;BME280;61643;49.564;17.412;2023-03-01T08:23:33;99226.09;;;0.06;76.83
73429;BME280;61643;49.564;17.412;2023-03-01T08:26:19;99225.41;;;0.12;77.71
73429;BME280;61643;49.564;17.412;2023-03-01T08:28:47;99222.09;;;0.18;77.49
73429;BME280;61643;49.564;17.412;2023-03-01T08:33:43;99210.69;;;0.34;76.61
73429;BME280;61643;49.564;17.412;2023-03-01T08:36:09;99207.03;;;0.43;75.28
73429;BME280;61643;49.564;17.412;2023-03-01T08:38:35;99209.16;;;0.47;75.46
73429;BME280;61643;49.564;17.412;2023-03-01T08:41:03;99203.56;;;0.51;74.19
73429;BME280;61643;49.564;17.412;2023-03-01T08:43:29;99207.97;;;0.66;74.50
73429;BME280;61643;49.564;17.412;2023-03-01T08:45:55;99211.78;;;0.72;74.95
73429;BME280;61643;49.564;17.412;2023-03-01T08:48:21;99200.16;;;0.81;73.42
73429;BME280;61643;49.564;17.412;2023-03-01T08:50:47;99210.88;;;0.87;73.04
73429;BME280;61643;49.564;17.412;2023-03-01T08:53:13;99200.47;;;0.94;73.81
73429;BME280;61643;49.564;17.412;2023-03-01T08:55:39;99205.22;;;0.98;74.18
73429;BME280;61643;49.564;17.412;2023-03-01T08:58:05;99207.84;;;1.07;74.15
73429;BME280;61643;49.564;17.412;2023-03-01T09:00:31;99200.72;;;1.07;74.40
73429;BME280;61643;49.564;17.412;2023-03-01T09:03:00;99205.81;;;1.17;73.99
73429;BME280;61643;49.564;17.412;2023-03-01T09:05:26;99195.53;;;1.22;74.16
73429;BME280;61643;49.564;17.412;2023-03-01T09:07:53;99199.59;;;1.32;75.43
73429;BME280;61643;49.564;17.412;2023-03-01T09:10:19;99202.88;;;1.42;76.42
73429;BME280;61643;49.564;17.412;2023-03-01T09:12:45;99185.59;;;1.46;75.29
73429;BME280;61643;49.564;17.412;2023-03-01T09:15:10;99186.91;;;1.51;75.91
73429;BME280;61643;49.564;17.412;2023-03-01T09:17:36;99186.88;;;1.59;74.79
73429;BME280;61643;49.564;17.412;2023-03-01T09:20:03;99185.50;;;1.63;75.03
73429;BME280;61643;49.564;17.412;2023-03-01T09:22:32;99179.50;;;1.69;75.03
73429;BME280;61643;49.564;17.412;2023-03-01T09:24:58;99179.13;;;1.72;73.98
73429;BME280;61643;49.564;17.412;2023-03-01T09:27:25;99177.78;;;1.76;73.73
73429;BME280;61643;49.564;17.412;2023-03-01T09:29:51;99170.28;;;1.79;74.52
73429;BME280;61643;49.564;17.412;2023-03-01T09:32:16;99178.09;;;1.81;74.23
73429;BME280;61643;49.564;17.412;2023-03-01T09:34:42;99168.28;;;1.81;73.66
73429;BME280;61643;49.564;17.412;2023-03-01T09:37:29;99178.38;;;1.86;73.80
73429;BME280;61643;49.564;17.412;2023-03-01T09:39:55;99161.81;;;1.84;72.83
73429;BME280;61643;49.564;17.412;2023-03-01T09:42:21;99170.88;;;1.89;73.26
73429;BME280;61643;49.564;17.412;2023-03-01T09:44:57;99176.66;;;1.93;73.69
73429;BME280;61643;49.564;17.412;2023-03-01T09:47:28;99173.63;;;1.96;73.18
73429;BME280;61643;49.564;17.412;2023-03-01T09:52:42;99172.56;;;2.05;72.31
73429;BME280;61643;49.564;17.412;2023-03-01T09:55:13;99171.03;;;2.11;72.89
73429;BME280;61643;49.564;17.412;2023-03-01T09:57:54;99165.19;;;2.15;71.82
73429;BME280;61643;49.564;17.412;2023-03-01T10:00:24;99173.25;;;2.22;72.34
73429;BME280;61643;49.564;17.412;2023-03-01T10:03:20;99167.56;;;2.25;71.80
73429;BME280;61643;49.564;17.412;2023-03-01T10:06:14;99162.91;;;2.27;70.74
73429;BME280;61643;49.564;17.412;2023-03-01T10:08:54;99158.06;;;2.30;71.10
73429;BME280;61643;49.564;17.412;2023-03-01T10:11:26;99158.34;;;2.35;70.45
73429;BME280;61643;49.564;17.412;2023-03-01T10:14:02;99152.31;;;2.41;71.22
73429;BME280;61643;49.564;17.412;2023-03-01T10:19:44;99156.16;;;2.54;70.43
73429;BME280;61643;49.564;17.412;2023-03-01T10:22:24;99148.31;;;2.60;71.17
73429;BME280;61643;49.564;17.412;2023-03-01T10:24:56;99146.72;;;2.66;71.51
73429;BME280;61643;49.564;17.412;2023-03-01T10:27:25;99147.34;;;2.68;70.97
73429;BME280;61643;49.564;17.412;2023-03-01T10:32:39;99144.44;;;2.77;70.77
73429;BME280;61643;49.564;17.412;2023-03-01T10:38:17;99145.72;;;2.81;68.71
73429;BME280;61643;49.564;17.412;2023-03-01T10:43:24;99133.91;;;2.84;67.31
73429;BME280;61643;49.564;17.412;2023-03-01T10:45:51;99131.84;;;2.86;66.54
73429;BME280;61643;49.564;17.412;2023-03-01T10:48:22;99122.50;;;2.90;68.09
73429;BME280;61643;49.564;17.412;2023-03-01T10:56:05;99111.25;;;2.88;67.19
73429;BME280;61643;49.564;17.412;2023-03-01T10:58:33;99098.22;;;2.93;67.81
73429;BME280;61643;49.564;17.412;2023-03-01T11:01:02;99095.00;;;2.97;67.45
73429;BME280;61643;49.564;17.412;2023-03-01T11:03:34;99095.06;;;3.04;68.11
73429;BME280;61643;49.564;17.412;2023-03-01T11:08:43;99082.31;;;3.14;67.62
73429;BME280;61643;49.564;17.412;2023-03-01T11:11:33;99067.81;;;3.17;67.84
73429;BME280;61643;49.564;17.412;2023-03-01T11:21:42;99076.34;;;3.55;68.34
73429;BME280;61643;49.564;17.412;2023-03-01T11:24:12;99075.22;;;3.64;66.74
73429;BME280;61643;49.564;17.412;2023-03-01T11:26:43;99065.00;;;3.67;67.05
73429;BME280;61643;49.564;17.412;2023-03-01T11:29:27;99056.28;;;3.80;67.35
73429;BME280;61643;49.564;17.412;2023-03-01T11:32:07;99052.88;;;3.86;66.31
73429;BME280;61643;49.564;17.412;2023-03-01T11:35:02;99051.72;;;3.95;66.46
73429;BME280;61643;49.564;17.412;2023-03-01T11:37:36;99045.13;;;3.91;66.55
73429;BME280;61643;49.564;17.412;2023-03-01T11:40:13;99033.91;;;3.95;66.62
73429;BME280;61643;49.564;17.412;2023-03-01T11:42:59;99045.38;;;3.96;64.38
73429;BME280;61643;49.564;17.412;2023-03-01T11:45:36;99031.09;;;4.04;64.38
73429;BME280;61643;49.564;17.412;2023-03-01T11:50:58;99033.94;;;4.02;66.16
73429;BME280;61643;49.564;17.412;2023-03-01T11:53:34;99023.97;;;4.11;65.28
73429;BME280;61643;49.564;17.412;2023-03-01T11:56:16;99018.28;;;4.20;65.70
73429;BME280;61643;49.564;17.412;2023-03-01T11:59:08;99019.19;;;4.34;65.68
73429;BME280;61643;49.564;17.412;2023-03-01T12:01:39;99021.91;;;4.47;66.21
73429;BME280;61643;49.564;17.412;2023-03-01T12:06:59;99014.63;;;4.69;66.21
73429;BME280;61643;49.564;17.412;2023-03-01T12:09:56;99011.78;;;4.77;66.19
73429;BME280;61643;49.564;17.412;2023-03-01T12:12:36;99007.69;;;4.81;66.47
73429;BME280;61643;49.564;17.412;2023-03-01T12:28:41;98982.72;;;5.02;64.93
73429;BME280;61643;49.564;17.412;2023-03-01T12:36:47;98967.53;;;5.02;64.69
73429;BME280;61643;49.564;17.412;2023-03-01T12:42:38;98974.06;;;5.00;64.92
73429;BME280;61643;49.564;17.412;2023-03-01T12:45:44;98969.59;;;5.13;64.31
73429;BME280;61643;49.564;17.412;2023-03-01T12:48:23;98975.34;;;5.17;64.42
73429;BME280;61643;49.564;17.412;2023-03-01T12:50:54;98967.94;;;5.19;64.06
73429;BME280;61643;49.564;17.412;2023-03-01T12:53:27;98969.19;;;5.16;63.73
73429;BME280;61643;49.564;17.412;2023-03-01T12:55:59;98963.03;;;5.16;63.42
73429;BME280;61643;49.564;17.412;2023-03-01T12:58:36;98960.56;;;5.14;63.40
73429;BME280;61643;49.564;17.412;2023-03-01T13:03:49;98961.38;;;5.21;64.73
73429;BME280;61643;49.564;17.412;2023-03-01T13:08:50;98956.06;;;5.34;64.13
73429;BME280;61643;49.564;17.412;2023-03-01T13:11:22;98955.00;;;5.35;63.80
73429;BME280;61643;49.564;17.412;2023-03-01T13:13:49;98954.81;;;5.37;63.65
73429;BME280;61643;49.564;17.412;2023-03-01T13:19:15;98956.88;;;5.41;62.87
73429;BME280;61643;49.564;17.412;2023-03-01T13:21:43;98962.63;;;5.52;58.77
73429;BME280;61643;49.564;17.412;2023-03-01T13:24:32;98947.84;;;5.56;57.32
73429;BME280;61643;49.564;17.412;2023-03-01T13:32:27;98952.94;;;5.83;54.15
73429;BME280;61643;49.564;17.412;2023-03-01T13:37:39;98950.50;;;5.88;54.01
73429;BME280;61643;49.564;17.412;2023-03-01T13:42:48;98951.50;;;5.81;55.90
73429;BME280;61643;49.564;17.412;2023-03-01T13:45:21;98963.22;;;5.73;55.22
73429;BME280;61643;49.564;17.412;2023-03-01T13:47:53;98956.66;;;5.69;54.96
73429;BME280;61643;49.564;17.412;2023-03-01T13:50:23;98958.91;;;5.72;56.26
73429;BME280;61643;49.564;17.412;2023-03-01T13:52:53;98965.28;;;5.65;55.43
73429;BME280;61643;49.564;17.412;2023-03-01T13:55:24;98958.91;;;5.66;56.56
73429;BME280;61643;49.564;17.412;2023-03-01T13:57:56;98963.22;;;5.54;56.42
73429;BME280;61643;49.564;17.412;2023-03-01T14:03:17;98956.47;;;5.51;57.08
73429;BME280;61643;49.564;17.412;2023-03-01T14:08:28;98951.56;;;5.41;56.35
73429;BME280;61643;49.564;17.412;2023-03-01T14:11:21;98941.47;;;5.43;57.33
73429;BME280;61643;49.564;17.412;2023-03-01T14:17:14;98952.75;;;5.39;56.89
73429;BME280;61643;49.564;17.412;2023-03-01T14:19:45;98950.31;;;5.31;57.05
73429;BME280;61643;49.564;17.412;2023-03-01T14:22:25;98957.28;;;5.25;57.61
73429;BME280;61643;49.564;17.412;2023-03-01T14:24:58;98950.50;;;5.29;57.35
73429;BME280;61643;49.564;17.412;2023-03-01T14:27:28;98947.22;;;5.27;56.69
73429;BME280;61643;49.564;17.412;2023-03-01T14:29:59;98950.50;;;5.23;57.69
73429;BME280;61643;49.564;17.412;2023-03-01T14:32:27;98953.00;;;5.24;57.84
73429;BME280;61643;49.564;17.412;2023-03-01T14:34:55;98951.94;;;5.25;57.89
73429;BME280;61643;49.564;17.412;2023-03-01T14:37:32;98954.19;;;5.15;57.26
73429;BME280;61643;49.564;17.412;2023-03-01T14:40:00;98941.03;;;5.07;57.41
73429;BME280;61643;49.564;17.412;2023-03-01T14:42:31;98954.19;;;5.09;57.84
73429;BME280;61643;49.564;17.412;2023-03-01T14:45:00;98954.78;;;5.04;58.65
73429;BME280;61643;49.564;17.412;2023-03-01T14:47:32;98961.38;;;5.02;58.53